sensor_id;sensor_type;location;lat;lon;timestamp;P1;durP1;ratioP1;P2;durP2;ratioP2
11771;SDS011;12556;55.748;13.194;2023-02-15T00:01:04;42.27;;;23.87;;
11771;SDS011;12556;55.748;13.194;2023-02-15T00:03:31;42.83;;;23.40;;
11771;SDS011;12556;55.748;13.194;2023-02-15T00:05:58;48.33;;;25.33;;
11771;SDS011;12556;55.748;13.194;2023-02-15T00:08:25;40.90;;;23.93;;
11771;SDS011;12556;55.748;13.194;2023-02-15T00:10:52;41.70;;;25.10;;
11771;SDS011;12556;55.748;13.194;2023-02-15T00:13:19;44.23;;;24.93;;
11771;SDS011;12556;55.748;13.194;2023-02-15T00:15:46;42.40;;;23.93;;
11771;SDS011;12556;55.748;13.194;2023-02-15T00:18:14;42.23;;;23.80;;
11771;SDS011;12556;55.748;13.194;2023-02-15T00:20:41;39.93;;;23.93;;
11771;SDS011;12556;55.748;13.194;2023-02-15T00:23:08;41.83;;;24.47;;
11771;SDS011;12556;55.748;13.194;2023-02-15T00:25:35;42.33;;;24.73;;
11771;SDS011;12556;55.748;13.194;2023-02-15T00:28:02;39.30;;;23.43;;
11771;SDS011;12556;55.748;13.194;2023-02-15T00:30:28;40.93;;;23.70;;
11771;SDS011;12556;55.748;13.194;2023-02-15T00:32:55;39.53;;;23.13;;
11771;SDS011;12556;55.748;13.194;2023-02-15T00:35:23;44.77;;;25.33;;
11771;SDS011;12556;55.748;13.194;2023-02-15T00:37:50;40.90;;;23.13;;
11771;SDS011;12556;55.748;13.194;2023-02-15T00:40:18;44.00;;;24.43;;
11771;SDS011;12556;55.748;13.194;2023-02-15T00:42:45;45.60;;;24.70;;
11771;SDS011;12556;55.748;13.194;2023-02-15T00:45:12;37.20;;;22.13;;
11771;SDS011;12556;55.748;13.194;2023-02-15T00:47:39;40.67;;;23.90;;
11771;SDS011;12556;55.748;13.194;2023-02-15T00:50:06;40.30;;;23.53;;
11771;SDS011;12556;55.748;13.194;2023-02-15T00:52:35;40.43;;;23.10;;
11771;SDS011;12556;55.748;13.194;2023-02-15T00:55:01;39.37;;;23.53;;
11771;SDS011;12556;55.748;13.194;2023-02-15T00:57:28;42.90;;;25.13;;
11771;SDS011;12556;55.748;13.194;2023-02-15T00:59:55;39.87;;;22.90;;
11771;SDS011;12556;55.748;13.194;2023-02-15T01:02:22;37.53;;;22.97;;
11771;SDS011;12556;55.748;13.194;2023-02-15T01:04:49;39.90;;;23.77;;
11771;SDS011;12556;55.748;13.194;2023-02-15T01:07:16;41.37;;;24.93;;
11771;SDS011;12556;55.748;13.194;2023-02-15T01:09:44;39.83;;;22.70;;
11771;SDS011;12556;55.748;13.194;2023-02-15T01:12:11;38.60;;;22.10;;
11771;SDS011;12556;55.748;13.194;2023-02-15T01:14:38;43.60;;;22.33;;
11771;SDS011;12556;55.748;13.194;2023-02-15T01:17:05;41.50;;;24.67;;
11771;SDS011;12556;55.748;13.194;2023-02-15T01:19:32;39.90;;;22.93;;
11771;SDS011;12556;55.748;13.194;2023-02-15T01:21:59;42.17;;;23.50;;
11771;SDS011;12556;55.748;13.194;2023-02-15T01:24:26;40.57;;;22.47;;
11771;SDS011;12556;55.748;13.194;2023-02-15T01:26:54;40.60;;;23.40;;
11771;SDS011;12556;55.748;13.194;2023-02-15T01:29:21;39.63;;;22.73;;
11771;SDS011;12556;55.748;13.194;2023-02-15T01:31:47;39.37;;;23.40;;
11771;SDS011;12556;55.748;13.194;2023-02-15T01:34:14;37.43;;;21.57;;
11771;SDS011;12556;55.748;13.194;2023-02-15T01:36:41;37.63;;;22.90;;
11771;SDS011;12556;55.748;13.194;2023-02-15T01:39:08;40.60;;;22.60;;
11771;SDS011;12556;55.748;13.194;2023-02-15T01:41:35;39.30;;;21.30;;
11771;SDS011;12556;55.748;13.194;2023-02-15T01:47:03;37.03;;;21.63;;
11771;SDS011;12556;55.748;13.194;2023-02-15T01:49:30;38.63;;;22.67;;
11771;SDS011;12556;55.748;13.194;2023-02-15T01:51:58;34.77;;;20.03;;
11771;SDS011;12556;55.748;13.194;2023-02-15T01:54:27;34.87;;;19.67;;
11771;SDS011;12556;55.748;13.194;2023-02-15T01:56:59;37.20;;;21.37;;
11771;SDS011;12556;55.748;13.194;2023-02-15T01:59:29;39.77;;;20.87;;
11771;SDS011;12556;55.748;13.194;2023-02-15T02:01:58;39.70;;;21.90;;
11771;SDS011;12556;55.748;13.194;2023-02-15T02:04:29;39.13;;;21.13;;
11771;SDS011;12556;55.748;13.194;2023-02-15T02:07:01;39.13;;;21.27;;
11771;SDS011;12556;55.748;13.194;2023-02-15T02:09:30;40.00;;;21.87;;
11771;SDS011;12556;55.748;13.194;2023-02-15T02:11:57;40.70;;;20.83;;
11771;SDS011;12556;55.748;13.194;2023-02-15T02:14:25;40.47;;;22.43;;
11771;SDS011;12556;55.748;13.194;2023-02-15T02:16:53;40.53;;;22.27;;
11771;SDS011;12556;55.748;13.194;2023-02-15T02:19:44;36.23;;;20.20;;
11771;SDS011;12556;55.748;13.194;2023-02-15T02:22:39;39.43;;;21.90;;
11771;SDS011;12556;55.748;13.194;2023-02-15T02:31:31;38.27;;;21.83;;
11771;SDS011;12556;55.748;13.194;2023-02-15T02:34:20;38.20;;;21.73;;
11771;SDS011;12556;55.748;13.194;2023-02-15T02:36:55;35.87;;;20.87;;
11771;SDS011;12556;55.748;13.194;2023-02-15T02:39:30;40.40;;;22.10;;
11771;SDS011;12556;55.748;13.194;2023-02-15T02:42:05;39.37;;;21.07;;
11771;SDS011;12556;55.748;13.194;2023-02-15T02:44:38;39.63;;;21.47;;
11771;SDS011;12556;55.748;13.194;2023-02-15T02:47:10;41.37;;;23.03;;
11771;SDS011;12556;55.748;13.194;2023-02-15T02:49:43;40.90;;;21.90;;
11771;SDS011;12556;55.748;13.194;2023-02-15T02:55:01;38.83;;;20.97;;
11771;SDS011;12556;55.748;13.194;2023-02-15T02:57:31;38.80;;;21.43;;
11771;SDS011;12556;55.748;13.194;2023-02-15T03:00:00;39.57;;;22.47;;
11771;SDS011;12556;55.748;13.194;2023-02-15T03:02:31;46.53;;;22.80;;
11771;SDS011;12556;55.748;13.194;2023-02-15T03:05:03;41.20;;;22.40;;
11771;SDS011;12556;55.748;13.194;2023-02-15T03:07:35;36.67;;;20.63;;
11771;SDS011;12556;55.748;13.194;2023-02-15T03:10:03;40.03;;;21.10;;
11771;SDS011;12556;55.748;13.194;2023-02-15T03:12:33;38.13;;;22.73;;
11771;SDS011;12556;55.748;13.194;2023-02-15T03:15:03;41.97;;;22.63;;
11771;SDS011;12556;55.748;13.194;2023-02-15T03:17:33;40.13;;;20.97;;
11771;SDS011;12556;55.748;13.194;2023-02-15T03:20:06;40.93;;;22.90;;
11771;SDS011;12556;55.748;13.194;2023-02-15T03:22:36;38.37;;;21.27;;
11771;SDS011;12556;55.748;13.194;2023-02-15T03:25:07;45.97;;;22.90;;
11771;SDS011;12556;55.748;13.194;2023-02-15T03:27:37;41.50;;;22.07;;
11771;SDS011;12556;55.748;13.194;2023-02-15T03:30:07;42.87;;;22.87;;
11771;SDS011;12556;55.748;13.194;2023-02-15T03:32:36;41.63;;;23.10;;
11771;SDS011;12556;55.748;13.194;2023-02-15T03:35:06;40.00;;;20.47;;
11771;SDS011;12556;55.748;13.194;2023-02-15T03:37:35;39.10;;;21.27;;
11771;SDS011;12556;55.748;13.194;2023-02-15T03:40:06;46.73;;;23.77;;
11771;SDS011;12556;55.748;13.194;2023-02-15T03:42:52;40.60;;;21.90;;
11771;SDS011;12556;55.748;13.194;2023-02-15T03:45:27;43.03;;;22.83;;
11771;SDS011;12556;55.748;13.194;2023-02-15T03:47:56;39.63;;;22.03;;
11771;SDS011;12556;55.748;13.194;2023-02-15T03:50:28;43.43;;;23.03;;
11771;SDS011;12556;55.748;13.194;2023-02-15T03:53:15;46.57;;;23.80;;
11771;SDS011;12556;55.748;13.194;2023-02-15T03:55:46;46.27;;;23.77;;
11771;SDS011;12556;55.748;13.194;2023-02-15T03:58:13;44.10;;;21.67;;
11771;SDS011;12556;55.748;13.194;2023-02-15T04:00:58;43.03;;;23.00;;
11771;SDS011;12556;55.748;13.194;2023-02-15T04:03:45;45.60;;;22.70;;
11771;SDS011;12556;55.748;13.194;2023-02-15T04:06:18;44.43;;;23.17;;
11771;SDS011;12556;55.748;13.194;2023-02-15T04:08:45;42.53;;;22.57;;
11771;SDS011;12556;55.748;13.194;2023-02-15T04:11:28;42.90;;;24.20;;
11771;SDS011;12556;55.748;13.194;2023-02-15T04:13:56;45.50;;;24.30;;
11771;SDS011;12556;55.748;13.194;2023-02-15T04:16:23;44.23;;;23.90;;
11771;SDS011;12556;55.748;13.194;2023-02-15T04:18:49;39.00;;;22.90;;
11771;SDS011;12556;55.748;13.194;2023-02-15T04:21:35;43.40;;;24.07;;
11771;SDS011;12556;55.748;13.194;2023-02-15T04:24:20;49.90;;;24.97;;
11771;SDS011;12556;55.748;13.194;2023-02-15T04:27:04;47.13;;;25.07;;
11771;SDS011;12556;55.748;13.194;2023-02-15T04:29:32;49.87;;;24.77;;
11771;SDS011;12556;55.748;13.194;2023-02-15T04:31:59;47.83;;;24.00;;
11771;SDS011;12556;55.748;13.194;2023-02-15T04:34:26;50.53;;;25.73;;
11771;SDS011;12556;55.748;13.194;2023-02-15T04:36:55;42.73;;;24.83;;
11771;SDS011;12556;55.748;13.194;2023-02-15T04:39:22;51.57;;;26.80;;
11771;SDS011;12556;55.748;13.194;2023-02-15T04:41:48;46.37;;;24.40;;
11771;SDS011;12556;55.748;13.194;2023-02-15T04:44:15;47.63;;;25.07;;
11771;SDS011;12556;55.748;13.194;2023-02-15T04:46:42;45.67;;;24.17;;
11771;SDS011;12556;55.748;13.194;2023-02-15T04:49:09;45.77;;;23.10;;
11771;SDS011;12556;55.748;13.194;2023-02-15T04:51:36;43.83;;;24.80;;
11771;SDS011;12556;55.748;13.194;2023-02-15T04:54:04;45.27;;;24.67;;
11771;SDS011;12556;55.748;13.194;2023-02-15T04:56:31;47.47;;;24.83;;
11771;SDS011;12556;55.748;13.194;2023-02-15T04:58:59;46.73;;;25.20;;
11771;SDS011;12556;55.748;13.194;2023-02-15T05:01:26;46.83;;;24.57;;
11771;SDS011;12556;55.748;13.194;2023-02-15T05:03:53;52.83;;;26.17;;
11771;SDS011;12556;55.748;13.194;2023-02-15T05:06:20;48.97;;;25.83;;
11771;SDS011;12556;55.748;13.194;2023-02-15T05:08:47;46.93;;;25.13;;
11771;SDS011;12556;55.748;13.194;2023-02-15T05:11:18;46.30;;;24.97;;
11771;SDS011;12556;55.748;13.194;2023-02-15T05:13:45;48.77;;;25.07;;
11771;SDS011;12556;55.748;13.194;2023-02-15T05:16:12;47.67;;;25.23;;
11771;SDS011;12556;55.748;13.194;2023-02-15T05:18:39;45.87;;;24.63;;
11771;SDS011;12556;55.748;13.194;2023-02-15T05:21:06;46.00;;;25.37;;
11771;SDS011;12556;55.748;13.194;2023-02-15T05:23:33;47.60;;;25.00;;
11771;SDS011;12556;55.748;13.194;2023-02-15T05:26:00;46.83;;;25.73;;
11771;SDS011;12556;55.748;13.194;2023-02-15T05:28:45;45.00;;;23.67;;
11771;SDS011;12556;55.748;13.194;2023-02-15T05:31:13;44.87;;;22.63;;
11771;SDS011;12556;55.748;13.194;2023-02-15T05:33:41;42.90;;;25.33;;
11771;SDS011;12556;55.748;13.194;2023-02-15T05:36:09;45.93;;;23.70;;
11771;SDS011;12556;55.748;13.194;2023-02-15T05:38:37;49.27;;;24.97;;
11771;SDS011;12556;55.748;13.194;2023-02-15T05:41:04;48.03;;;23.97;;
11771;SDS011;12556;55.748;13.194;2023-02-15T05:43:31;43.80;;;24.33;;
11771;SDS011;12556;55.748;13.194;2023-02-15T05:46:00;44.00;;;23.60;;
11771;SDS011;12556;55.748;13.194;2023-02-15T05:48:27;48.13;;;23.90;;
11771;SDS011;12556;55.748;13.194;2023-02-15T05:50:58;44.40;;;24.27;;
11771;SDS011;12556;55.748;13.194;2023-02-15T05:53:25;42.73;;;23.73;;
11771;SDS011;12556;55.748;13.194;2023-02-15T05:55:52;45.00;;;23.33;;
11771;SDS011;12556;55.748;13.194;2023-02-15T05:58:23;41.43;;;23.60;;
11771;SDS011;12556;55.748;13.194;2023-02-15T06:00:51;45.27;;;24.37;;
11771;SDS011;12556;55.748;13.194;2023-02-15T06:03:19;41.17;;;24.90;;
11771;SDS011;12556;55.748;13.194;2023-02-15T06:05:47;43.37;;;22.67;;
11771;SDS011;12556;55.748;13.194;2023-02-15T06:08:14;39.27;;;22.87;;
11771;SDS011;12556;55.748;13.194;2023-02-15T06:10:41;43.80;;;25.83;;
11771;SDS011;12556;55.748;13.194;2023-02-15T06:13:08;44.37;;;23.83;;
11771;SDS011;12556;55.748;13.194;2023-02-15T06:15:35;45.20;;;23.23;;
11771;SDS011;12556;55.748;13.194;2023-02-15T06:18:01;44.93;;;24.70;;
11771;SDS011;12556;55.748;13.194;2023-02-15T06:20:30;44.37;;;24.03;;
11771;SDS011;12556;55.748;13.194;2023-02-15T06:22:57;40.27;;;21.67;;
11771;SDS011;12556;55.748;13.194;2023-02-15T06:25:24;41.40;;;23.63;;
11771;SDS011;12556;55.748;13.194;2023-02-15T06:27:51;43.30;;;23.67;;
11771;SDS011;12556;55.748;13.194;2023-02-15T06:30:18;47.83;;;25.30;;
11771;SDS011;12556;55.748;13.194;2023-02-15T06:32:44;40.73;;;22.17;;
11771;SDS011;12556;55.748;13.194;2023-02-15T06:35:11;43.13;;;23.10;;
11771;SDS011;12556;55.748;13.194;2023-02-15T06:37:40;42.97;;;23.80;;
11771;SDS011;12556;55.748;13.194;2023-02-15T06:40:07;47.40;;;24.33;;
11771;SDS011;12556;55.748;13.194;2023-02-15T06:42:34;41.07;;;23.33;;
11771;SDS011;12556;55.748;13.194;2023-02-15T06:45:01;43.47;;;23.50;;
11771;SDS011;12556;55.748;13.194;2023-02-15T06:47:28;38.90;;;22.60;;
11771;SDS011;12556;55.748;13.194;2023-02-15T06:49:55;42.60;;;22.97;;
11771;SDS011;12556;55.748;13.194;2023-02-15T06:52:22;39.87;;;23.17;;
11771;SDS011;12556;55.748;13.194;2023-02-15T06:54:51;52.57;;;25.00;;
11771;SDS011;12556;55.748;13.194;2023-02-15T06:57:18;44.63;;;24.30;;
11771;SDS011;12556;55.748;13.194;2023-02-15T06:59:45;45.13;;;24.07;;
11771;SDS011;12556;55.748;13.194;2023-02-15T07:02:12;40.27;;;23.80;;
11771;SDS011;12556;55.748;13.194;2023-02-15T07:04:39;43.13;;;23.03;;
11771;SDS011;12556;55.748;13.194;2023-02-15T07:07:07;46.37;;;25.17;;
11771;SDS011;12556;55.748;13.194;2023-02-15T07:09:36;46.60;;;24.33;;
11771;SDS011;12556;55.748;13.194;2023-02-15T07:12:05;43.23;;;25.10;;
11771;SDS011;12556;55.748;13.194;2023-02-15T07:14:50;46.33;;;24.93;;
11771;SDS011;12556;55.748;13.194;2023-02-15T07:17:17;45.53;;;24.67;;
11771;SDS011;12556;55.748;13.194;2023-02-15T07:19:44;49.10;;;26.17;;
11771;SDS011;12556;55.748;13.194;2023-02-15T07:22:11;44.63;;;24.60;;
11771;SDS011;12556;55.748;13.194;2023-02-15T07:24:38;51.17;;;25.00;;
11771;SDS011;12556;55.748;13.194;2023-02-15T07:27:07;51.33;;;26.83;;
11771;SDS011;12556;55.748;13.194;2023-02-15T07:29:34;48.43;;;26.00;;
11771;SDS011;12556;55.748;13.194;2023-02-15T07:32:01;45.03;;;25.47;;
11771;SDS011;12556;55.748;13.194;2023-02-15T07:34:28;45.90;;;24.43;;
11771;SDS011;12556;55.748;13.194;2023-02-15T07:36:54;49.23;;;26.27;;
11771;SDS011;12556;55.748;13.194;2023-02-15T07:39:21;46.53;;;25.73;;
11771;SDS011;12556;55.748;13.194;2023-02-15T07:41:48;51.47;;;26.43;;
11771;SDS011;12556;55.748;13.194;2023-02-15T07:44:16;48.50;;;26.13;;
11771;SDS011;12556;55.748;13.194;2023-02-15T07:46:43;49.33;;;26.37;;
11771;SDS011;12556;55.748;13.194;2023-02-15T07:49:10;50.10;;;26.37;;
11771;SDS011;12556;55.748;13.194;2023-02-15T07:51:37;48.47;;;27.07;;
11771;SDS011;12556;55.748;13.194;2023-02-15T07:54:05;49.60;;;26.63;;
11771;SDS011;12556;55.748;13.194;2023-02-15T07:56:32;49.93;;;25.77;;
11771;SDS011;12556;55.748;13.194;2023-02-15T07:59:00;49.90;;;26.77;;
11771;SDS011;12556;55.748;13.194;2023-02-15T08:01:30;48.67;;;25.43;;
11771;SDS011;12556;55.748;13.194;2023-02-15T08:04:00;52.97;;;25.57;;
11771;SDS011;12556;55.748;13.194;2023-02-15T08:06:27;51.83;;;27.07;;
11771;SDS011;12556;55.748;13.194;2023-02-15T08:08:56;47.73;;;25.40;;
11771;SDS011;12556;55.748;13.194;2023-02-15T08:11:23;52.03;;;26.80;;
11771;SDS011;12556;55.748;13.194;2023-02-15T08:13:51;47.37;;;26.37;;
11771;SDS011;12556;55.748;13.194;2023-02-15T08:18:50;52.10;;;26.43;;
11771;SDS011;12556;55.748;13.194;2023-02-15T08:21:17;51.03;;;26.60;;
11771;SDS011;12556;55.748;13.194;2023-02-15T08:23:44;55.50;;;28.47;;
11771;SDS011;12556;55.748;13.194;2023-02-15T08:26:11;49.70;;;25.43;;
11771;SDS011;12556;55.748;13.194;2023-02-15T08:28:38;52.40;;;25.97;;
11771;SDS011;12556;55.748;13.194;2023-02-15T08:31:06;46.30;;;25.90;;
11771;SDS011;12556;55.748;13.194;2023-02-15T08:33:33;51.03;;;27.77;;
11771;SDS011;12556;55.748;13.194;2023-02-15T08:36:06;54.67;;;27.90;;
11771;SDS011;12556;55.748;13.194;2023-02-15T08:38:34;50.67;;;25.70;;
11771;SDS011;12556;55.748;13.194;2023-02-15T08:41:08;60.83;;;28.73;;
11771;SDS011;12556;55.748;13.194;2023-02-15T08:43:37;53.00;;;27.43;;
11771;SDS011;12556;55.748;13.194;2023-02-15T08:46:04;56.13;;;29.00;;
11771;SDS011;12556;55.748;13.194;2023-02-15T08:48:31;57.07;;;28.40;;
11771;SDS011;12556;55.748;13.194;2023-02-15T08:50:58;58.87;;;29.87;;
11771;SDS011;12556;55.748;13.194;2023-02-15T08:53:31;56.50;;;28.30;;
11771;SDS011;12556;55.748;13.194;2023-02-15T08:55:58;51.30;;;28.07;;
11771;SDS011;12556;55.748;13.194;2023-02-15T08:58:25;52.80;;;27.50;;
11771;SDS011;12556;55.748;13.194;2023-02-15T09:00:52;51.97;;;25.17;;
11771;SDS011;12556;55.748;13.194;2023-02-15T09:03:19;53.60;;;27.13;;
11771;SDS011;12556;55.748;13.194;2023-02-15T09:05:46;57.23;;;28.47;;
11771;SDS011;12556;55.748;13.194;2023-02-15T09:08:13;49.30;;;28.13;;
11771;SDS011;12556;55.748;13.194;2023-02-15T09:10:41;53.40;;;27.10;;
11771;SDS011;12556;55.748;13.194;2023-02-15T09:13:08;58.00;;;27.57;;
11771;SDS011;12556;55.748;13.194;2023-02-15T09:15:35;51.47;;;27.67;;
11771;SDS011;12556;55.748;13.194;2023-02-15T09:18:02;49.90;;;27.13;;
11771;SDS011;12556;55.748;13.194;2023-02-15T09:20:31;48.30;;;25.63;;
11771;SDS011;12556;55.748;13.194;2023-02-15T09:23:00;55.60;;;27.33;;
11771;SDS011;12556;55.748;13.194;2023-02-15T09:25:27;49.93;;;26.47;;
11771;SDS011;12556;55.748;13.194;2023-02-15T09:27:56;50.00;;;27.37;;
11771;SDS011;12556;55.748;13.194;2023-02-15T09:30:23;48.40;;;27.10;;
11771;SDS011;12556;55.748;13.194;2023-02-15T09:32:49;47.77;;;27.03;;
11771;SDS011;12556;55.748;13.194;2023-02-15T09:35:16;50.33;;;26.20;;
11771;SDS011;12556;55.748;13.194;2023-02-15T09:37:43;48.33;;;26.17;;
11771;SDS011;12556;55.748;13.194;2023-02-15T09:40:11;52.20;;;27.43;;
11771;SDS011;12556;55.748;13.194;2023-02-15T09:42:48;52.57;;;26.70;;
11771;SDS011;12556;55.748;13.194;2023-02-15T09:45:39;47.50;;;26.50;;
11771;SDS011;12556;55.748;13.194;2023-02-15T09:48:29;47.40;;;25.90;;
11771;SDS011;12556;55.748;13.194;2023-02-15T09:54:07;45.50;;;25.70;;
11771;SDS011;12556;55.748;13.194;2023-02-15T09:56:42;51.40;;;25.83;;
11771;SDS011;12556;55.748;13.194;2023-02-15T09:59:18;47.97;;;25.67;;
11771;SDS011;12556;55.748;13.194;2023-02-15T10:01:57;46.73;;;26.53;;
11771;SDS011;12556;55.748;13.194;2023-02-15T10:04:42;45.50;;;25.43;;
11771;SDS011;12556;55.748;13.194;2023-02-15T10:07:24;50.90;;;26.20;;
11771;SDS011;12556;55.748;13.194;2023-02-15T10:10:07;46.67;;;26.83;;
11771;SDS011;12556;55.748;13.194;2023-02-15T10:12:51;46.10;;;25.77;;
11771;SDS011;12556;55.748;13.194;2023-02-15T10:15:34;47.80;;;25.43;;
11771;SDS011;12556;55.748;13.194;2023-02-15T10:18:27;46.33;;;25.17;;
11771;SDS011;12556;55.748;13.194;2023-02-15T10:21:04;43.67;;;26.00;;
11771;SDS011;12556;55.748;13.194;2023-02-15T10:23:49;45.97;;;25.50;;
11771;SDS011;12556;55.748;13.194;2023-02-15T10:26:29;46.40;;;25.23;;
11771;SDS011;12556;55.748;13.194;2023-02-15T10:29:02;44.53;;;24.97;;
11771;SDS011;12556;55.748;13.194;2023-02-15T10:31:37;46.30;;;25.20;;
11771;SDS011;12556;55.748;13.194;2023-02-15T10:34:17;46.03;;;25.10;;
11771;SDS011;12556;55.748;13.194;2023-02-15T10:36:55;52.60;;;25.37;;
11771;SDS011;12556;55.748;13.194;2023-02-15T10:39:46;46.97;;;26.07;;
11771;SDS011;12556;55.748;13.194;2023-02-15T10:42:23;48.00;;;25.57;;
11771;SDS011;12556;55.748;13.194;2023-02-15T10:45:07;45.13;;;26.13;;
11771;SDS011;12556;55.748;13.194;2023-02-15T10:47:51;45.17;;;26.23;;
11771;SDS011;12556;55.748;13.194;2023-02-15T10:50:30;47.57;;;26.60;;
11771;SDS011;12556;55.748;13.194;2023-02-15T10:56:12;48.90;;;26.80;;
11771;SDS011;12556;55.748;13.194;2023-02-15T10:58:50;45.73;;;25.80;;
11771;SDS011;12556;55.748;13.194;2023-02-15T11:01:37;47.17;;;26.67;;
11771;SDS011;12556;55.748;13.194;2023-02-15T11:04:34;48.17;;;26.83;;
11771;SDS011;12556;55.748;13.194;2023-02-15T11:07:10;50.30;;;28.07;;
11771;SDS011;12556;55.748;13.194;2023-02-15T11:09:43;48.47;;;26.77;;
11771;SDS011;12556;55.748;13.194;2023-02-15T11:12:14;43.37;;;25.37;;
11771;SDS011;12556;55.748;13.194;2023-02-15T11:14:45;45.17;;;26.20;;
11771;SDS011;12556;55.748;13.194;2023-02-15T11:17:16;44.57;;;25.47;;
11771;SDS011;12556;55.748;13.194;2023-02-15T11:19:49;44.77;;;25.33;;
11771;SDS011;12556;55.748;13.194;2023-02-15T11:22:22;42.97;;;25.00;;
11771;SDS011;12556;55.748;13.194;2023-02-15T11:24:50;45.47;;;25.50;;
11771;SDS011;12556;55.748;13.194;2023-02-15T11:27:20;41.17;;;25.00;;
11771;SDS011;12556;55.748;13.194;2023-02-15T11:29:52;41.77;;;24.53;;
11771;SDS011;12556;55.748;13.194;2023-02-15T11:32:23;42.57;;;24.73;;
11771;SDS011;12556;55.748;13.194;2023-02-15T11:34:56;40.40;;;23.93;;
11771;SDS011;12556;55.748;13.194;2023-02-15T11:37:28;39.57;;;25.50;;
11771;SDS011;12556;55.748;13.194;2023-02-15T11:40:00;40.27;;;24.37;;
11771;SDS011;12556;55.748;13.194;2023-02-15T11:42:28;40.90;;;24.83;;
11771;SDS011;12556;55.748;13.194;2023-02-15T11:44:59;41.10;;;25.07;;
11771;SDS011;12556;55.748;13.194;2023-02-15T11:47:35;41.70;;;25.67;;
11771;SDS011;12556;55.748;13.194;2023-02-15T11:50:03;36.90;;;23.53;;
11771;SDS011;12556;55.748;13.194;2023-02-15T11:52:31;38.43;;;24.63;;
11771;SDS011;12556;55.748;13.194;2023-02-15T11:54:58;39.10;;;23.90;;
11771;SDS011;12556;55.748;13.194;2023-02-15T11:57:26;42.33;;;25.80;;
11771;SDS011;12556;55.748;13.194;2023-02-15T12:00:01;39.73;;;25.23;;
11771;SDS011;12556;55.748;13.194;2023-02-15T12:02:32;38.27;;;25.30;;
11771;SDS011;12556;55.748;13.194;2023-02-15T12:05:05;37.40;;;24.67;;
11771;SDS011;12556;55.748;13.194;2023-02-15T12:07:37;39.27;;;24.50;;
11771;SDS011;12556;55.748;13.194;2023-02-15T12:10:14;43.07;;;25.37;;
11771;SDS011;12556;55.748;13.194;2023-02-15T12:12:45;38.90;;;25.43;;
11771;SDS011;12556;55.748;13.194;2023-02-15T12:15:12;41.03;;;25.97;;
11771;SDS011;12556;55.748;13.194;2023-02-15T12:17:40;39.97;;;24.83;;
11771;SDS011;12556;55.748;13.194;2023-02-15T12:22:52;36.27;;;24.10;;
11771;SDS011;12556;55.748;13.194;2023-02-15T12:25:22;35.90;;;22.77;;
11771;SDS011;12556;55.748;13.194;2023-02-15T12:27:52;39.60;;;24.90;;
11771;SDS011;12556;55.748;13.194;2023-02-15T12:30:20;40.27;;;24.33;;
11771;SDS011;12556;55.748;13.194;2023-02-15T12:32:51;38.13;;;24.77;;
11771;SDS011;12556;55.748;13.194;2023-02-15T12:35:21;39.80;;;24.80;;
11771;SDS011;12556;55.748;13.194;2023-02-15T12:37:55;39.67;;;26.53;;
11771;SDS011;12556;55.748;13.194;2023-02-15T12:42:53;39.67;;;25.70;;
11771;SDS011;12556;55.748;13.194;2023-02-15T12:45:22;42.00;;;25.43;;
11771;SDS011;12556;55.748;13.194;2023-02-15T12:48:13;39.40;;;24.83;;
11771;SDS011;12556;55.748;13.194;2023-02-15T12:50:43;37.40;;;23.70;;
11771;SDS011;12556;55.748;13.194;2023-02-15T12:53:13;38.43;;;23.63;;
11771;SDS011;12556;55.748;13.194;2023-02-15T12:55:51;41.27;;;24.33;;
11771;SDS011;12556;55.748;13.194;2023-02-15T12:58:20;36.40;;;23.43;;
11771;SDS011;12556;55.748;13.194;2023-02-15T13:00:57;33.20;;;23.17;;
11771;SDS011;12556;55.748;13.194;2023-02-15T13:03:31;37.73;;;23.23;;
11771;SDS011;12556;55.748;13.194;2023-02-15T13:05:59;33.40;;;24.40;;
11771;SDS011;12556;55.748;13.194;2023-02-15T13:08:33;35.57;;;24.17;;
11771;SDS011;12556;55.748;13.194;2023-02-15T13:11:06;37.30;;;23.73;;
11771;SDS011;12556;55.748;13.194;2023-02-15T13:13:37;41.03;;;25.33;;
11771;SDS011;12556;55.748;13.194;2023-02-15T13:16:16;35.80;;;24.17;;
11771;SDS011;12556;55.748;13.194;2023-02-15T13:18:51;37.83;;;24.67;;
11771;SDS011;12556;55.748;13.194;2023-02-15T13:21:20;37.77;;;23.13;;
11771;SDS011;12556;55.748;13.194;2023-02-15T13:23:51;37.93;;;23.70;;
11771;SDS011;12556;55.748;13.194;2023-02-15T13:26:22;40.53;;;24.77;;
11771;SDS011;12556;55.748;13.194;2023-02-15T13:28:53;40.00;;;24.07;;
11771;SDS011;12556;55.748;13.194;2023-02-15T13:31:23;36.77;;;25.33;;
11771;SDS011;12556;55.748;13.194;2023-02-15T13:33:54;44.40;;;26.00;;
11771;SDS011;12556;55.748;13.194;2023-02-15T13:36:28;41.20;;;26.37;;
11771;SDS011;12556;55.748;13.194;2023-02-15T13:39:08;40.07;;;24.73;;
11771;SDS011;12556;55.748;13.194;2023-02-15T13:41:47;41.87;;;25.30;;
11771;SDS011;12556;55.748;13.194;2023-02-15T13:44:24;38.97;;;25.60;;
11771;SDS011;12556;55.748;13.194;2023-02-15T13:47:02;44.27;;;26.33;;
11771;SDS011;12556;55.748;13.194;2023-02-15T13:49:43;44.13;;;26.50;;
11771;SDS011;12556;55.748;13.194;2023-02-15T13:52:23;42.13;;;25.80;;
11771;SDS011;12556;55.748;13.194;2023-02-15T13:58:04;45.20;;;26.83;;
11771;SDS011;12556;55.748;13.194;2023-02-15T14:00:52;44.17;;;26.57;;
11771;SDS011;12556;55.748;13.194;2023-02-15T14:03:42;42.37;;;25.33;;
11771;SDS011;12556;55.748;13.194;2023-02-15T14:09:14;40.20;;;24.63;;
11771;SDS011;12556;55.748;13.194;2023-02-15T14:11:51;43.77;;;26.53;;
11771;SDS011;12556;55.748;13.194;2023-02-15T14:14:39;42.60;;;27.13;;
11771;SDS011;12556;55.748;13.194;2023-02-15T14:17:35;44.40;;;26.90;;
11771;SDS011;12556;55.748;13.194;2023-02-15T14:20:15;43.63;;;27.50;;
11771;SDS011;12556;55.748;13.194;2023-02-15T14:22:48;41.00;;;25.47;;
11771;SDS011;12556;55.748;13.194;2023-02-15T14:25:23;44.30;;;26.50;;
11771;SDS011;12556;55.748;13.194;2023-02-15T14:27:54;45.33;;;25.50;;
11771;SDS011;12556;55.748;13.194;2023-02-15T14:30:30;43.17;;;27.30;;
11771;SDS011;12556;55.748;13.194;2023-02-15T14:33:01;42.87;;;27.57;;
11771;SDS011;12556;55.748;13.194;2023-02-15T14:35:32;39.40;;;25.67;;
11771;SDS011;12556;55.748;13.194;2023-02-15T14:38:01;41.77;;;25.80;;
11771;SDS011;12556;55.748;13.194;2023-02-15T14:40:39;49.00;;;27.00;;
11771;SDS011;12556;55.748;13.194;2023-02-15T14:43:29;41.90;;;26.23;;
11771;SDS011;12556;55.748;13.194;2023-02-15T14:46:03;41.93;;;26.87;;
11771;SDS011;12556;55.748;13.194;2023-02-15T14:48:38;43.70;;;27.17;;
11771;SDS011;12556;55.748;13.194;2023-02-15T14:51:09;46.97;;;28.03;;
11771;SDS011;12556;55.748;13.194;2023-02-15T14:53:37;41.10;;;26.77;;
11771;SDS011;12556;55.748;13.194;2023-02-15T14:59:00;45.83;;;26.87;;
11771;SDS011;12556;55.748;13.194;2023-02-15T15:01:50;48.50;;;28.13;;
11771;SDS011;12556;55.748;13.194;2023-02-15T15:04:23;46.03;;;28.23;;
11771;SDS011;12556;55.748;13.194;2023-02-15T15:07:02;49.87;;;29.10;;